Time;durP1;ratioP1;P1;durP2;ratioP2;P2;SDS_P1;SDS_P2;PMS_P1;PMS_P2;Temp;Humidity;BMP_temperature;BMP_pressure;BME280_temperature;BME280_humidity;BME280_pressure;Samples;Min_cycle;Max_cycle;Signal;HPM_P1;HPM_P2
2023/08/26 00:07:44;;;;;;;11.50;7.20;;;;;;;22.34;67.15;98119.75;436498;1247;108074;-43
2023/08/26 00:17:51;;;;;;;11.30;6.70;;;;;;;22.17;67.52;98114.70;436165;1252;99253;-41
2023/08/26 00:48:11;;;;;;;8.00;6.90;;;;;;;22.20;68.59;98104.20;436341;1247;99252;-43
2023/08/26 00:58:19;;;;;;;6.70;6.20;;;;;;;22.08;68.81;98097.54;436282;1253;107570;-42
2023/08/26 01:08:24;;;;;;;9.00;5.90;;;;;;;22.10;68.86;98092.78;436515;1252;99314;-42
2023/08/26 01:18:31;;;;;;;7.90;5.90;;;;;;;22.27;68.92;98089.00;436547;1246;110642;-42
2023/08/26 01:28:38;;;;;;;10.10;6.80;;;;;;;22.25;68.90;98096.92;435473;1263;107326;-43
2023/08/26 01:38:46;;;;;;;8.50;6.70;;;;;;;21.98;69.02;98099.92;435392;1263;99225;-43
2023/08/26 01:58:59;;;;;;;6.90;6.20;;;;;;;21.45;69.58;98098.04;435305;1253;99218;-43
2023/08/26 02:09:06;;;;;;;9.40;7.30;;;;;;;21.36;69.91;98103.98;435271;1253;111282;-43
2023/08/26 02:19:13;;;;;;;9.90;8.00;;;;;;;21.35;70.34;98112.96;435304;1254;109412;-42
2023/08/26 02:49:32;;;;;;;9.00;7.70;;;;;;;20.77;71.55;98108.65;435202;1264;99218;-43
2023/08/26 03:09:43;;;;;;;8.90;6.30;;;;;;;20.58;72.57;98121.38;435308;1254;108388;-43
2023/08/26 03:19:50;;;;;;;10.20;6.70;;;;;;;20.71;72.77;98127.29;435462;1251;98001;-41
2023/08/26 03:29:57;;;;;;;10.70;7.70;;;;;;;20.65;72.58;98128.77;435384;1253;108151;-44
2023/08/26 03:50:12;;;;;;;11.40;7.70;;;;;;;20.57;72.89;98136.34;435316;1254;111342;-44
2023/08/26 04:00:18;;;;;;;12.40;7.90;;;;;;;20.62;73.16;98139.52;435389;1250;107234;-44
2023/08/26 04:20:32;;;;;;;7.50;6.50;;;;;;;20.85;73.24;98157.35;435182;1254;109443;-43
2023/08/26 04:30:40;;;;;;;11.20;7.60;;;;;;;21.02;73.37;98162.61;435370;1254;99265;-43
2023/08/26 04:40:47;;;;;;;11.50;7.00;;;;;;;21.28;73.40;98173.13;435428;1251;111318;-45
2023/08/26 04:50:51;;;;;;;8.00;7.20;;;;;;;21.60;73.15;98167.61;435152;1251;106763;-43
2023/08/26 05:00:59;;;;;;;10.20;6.10;;;;;;;22.16;73.11;98169.95;435308;1251;99221;-43
2023/08/26 05:21:13;;;;;;;8.00;5.70;;;;;;;25.10;71.42;98152.20;435360;1249;99123;-42
2023/08/26 05:31:19;;;;;;;;;;;;;;;26.16;69.84;98153.64;435415;1254;113710;-43
2023/08/26 05:41:26;;;;;;;11.10;6.10;;;;;;;27.10;68.66;98147.27;435398;1253;108659;-43
2023/08/26 06:11:43;;;;;;;6.20;5.40;;;;;;;28.88;63.78;98155.65;435578;1250;99221;-43
2023/08/26 06:21:50;;;;;;;7.80;4.60;;;;;;;29.54;62.41;98168.06;435405;1249;112316;-43
2023/08/26 06:42:03;;;;;;;4.40;3.80;;;;;;;30.48;59.32;98187.52;435249;1249;99241;-42
2023/08/26 06:52:11;;;;;;;8.00;3.30;;;;;;;31.15;57.66;98200.83;435215;1254;99986;-43
2023/08/26 07:02:18;;;;;;;9.40;3.10;;;;;;;31.65;55.80;98216.96;435384;1253;97986;-44
2023/08/26 07:12:25;;;;;;;7.70;3.20;;;;;;;31.84;54.12;98219.15;435434;1249;104516;-44
2023/08/26 07:22:32;;;;;;;5.40;3.00;;;;;;;31.51;53.20;98219.75;435344;1254;99965;-43
2023/08/26 07:32:39;;;;;;;6.30;3.50;;;;;;;31.55;51.99;98223.60;435630;1250;97983;-44
2023/08/26 07:42:46;;;;;;;4.00;3.10;;;;;;;31.58;51.26;98223.93;435335;1253;99903;-45
2023/08/26 08:02:58;;;;;;;5.20;3.50;;;;;;;31.84;50.03;98233.13;435365;1253;104244;-45
2023/08/26 08:13:08;;;;;;;6.00;3.30;;;;;;;31.98;48.63;98227.61;435300;1253;100826;-44
2023/08/26 08:33:21;;;;;;;27.80;4.50;;;;;;;32.44;47.89;98214.34;435393;1254;100842;-43
2023/08/26 08:43:31;;;;;;;3.20;2.90;;;;;;;32.70;47.18;98204.52;435424;1254;98542;-46
2023/08/26 09:03:51;;;;;;;3.10;2.80;;;;;;;33.25;45.68;98205.04;435596;1254;100207;-43
2023/08/26 09:13:57;;;;;;;3.80;2.60;;;;;;;33.33;45.01;98202.63;435647;1249;99229;-45
2023/08/26 09:34:12;;;;;;;4.50;2.90;;;;;;;32.75;43.10;98200.23;435414;1253;99225;-43
2023/08/26 09:44:15;;;;;;;5.80;2.90;;;;;;;32.41;43.92;98194.94;435369;1254;104143;-44
2023/08/26 09:54:23;;;;;;;4.10;2.70;;;;;;;32.79;43.36;98209.55;435459;1255;100687;-44
2023/08/26 10:24:47;;;;;;;3.70;3.20;;;;;;;33.36;41.73;98198.64;435523;1250;98827;-45
2023/08/26 10:34:59;;;;;;;3.70;2.70;;;;;;;33.38;41.33;98173.83;435435;1251;104207;-44
2023/08/26 10:45:04;;;;;;;3.10;2.70;;;;;;;33.61;40.93;98160.80;435316;1254;99934;-44
2023/08/26 11:05:18;;;;;;;6.20;2.70;;;;;;;32.97;40.66;98190.30;435410;1254;99707;-43
2023/08/26 11:25:33;;;;;;;3.70;3.00;;;;;;;32.18;41.06;98197.16;435550;1249;103813;-45
2023/08/26 11:35:40;;;;;;;7.90;3.50;;;;;;;31.84;41.27;98213.70;435448;1253;99903;-42
2023/08/26 11:45:56;;;;;;;5.20;3.20;;;;;;;31.58;41.69;98195.44;435427;1254;99247;-44
2023/08/26 12:16:14;;;;;;;3.70;3.20;;;;;;;30.90;43.04;98238.80;435454;1249;111359;-42
2023/08/26 12:36:22;;;;;;;18.30;4.80;;;;;;;30.34;44.17;98231.79;435007;1249;430485;-43
2023/08/26 12:56:36;;;;;;;9.10;4.40;;;;;;;30.26;45.00;98228.88;435509;1255;99326;-44
2023/08/26 13:16:49;;;;;;;5.20;4.40;;;;;;;29.84;45.95;98228.10;435256;1249;107392;-44
2023/08/26 13:26:57;;;;;;;6.40;4.60;;;;;;;29.71;46.51;98219.95;435469;1254;98009;-42
2023/08/26 14:27:29;;;;;;;5.80;5.20;;;;;;;30.15;47.12;98211.56;435315;1249;108194;-43
2023/08/26 14:37:36;;;;;;;8.50;4.10;;;;;;;29.95;47.26;98198.03;435483;1249;98503;-42
2023/08/26 14:47:45;;;;;;;4.30;4.00;;;;;;;29.85;47.13;98181.01;435478;1252;111940;-42
2023/08/26 14:57:51;;;;;;;4.20;3.70;;;;;;;29.84;46.91;98161.13;435303;1254;107897;-42
2023/08/26 15:07:56;;;;;;;4.30;3.40;;;;;;;29.86;46.64;98158.97;435354;1254;98008;-42
2023/08/26 15:18:03;;;;;;;4.30;3.50;;;;;;;30.09;46.25;98158.83;435728;1253;107704;-42
2023/08/26 15:28:10;;;;;;;3.50;2.70;;;;;;;30.13;45.56;98154.91;436322;1248;99221;-42
2023/08/26 15:48:23;;;;;;;8.00;3.80;;;;;;;29.81;45.17;98148.55;436300;1253;107591;-43
2023/08/26 15:58:31;;;;;;;5.40;4.10;;;;;;;29.38;45.76;98152.64;436513;1253;99263;-43
2023/08/26 16:08:38;;;;;;;5.70;3.90;;;;;;;29.07;46.27;98152.05;436317;1247;108816;-43
2023/08/26 16:18:45;;;;;;;7.70;3.40;;;;;;;28.87;46.60;98143.98;436463;1254;97976;-43
2023/08/26 16:28:52;;;;;;;3.70;3.20;;;;;;;28.81;46.70;98143.55;436358;1253;113069;-43
2023/08/26 16:38:59;;;;;;;5.90;3.00;;;;;;;28.64;46.90;98135.46;436254;1247;107432;-44
2023/08/26 16:49:04;;;;;;;3.30;2.90;;;;;;;28.32;47.19;98140.20;436383;1251;99275;-42
2023/08/26 16:59:11;;;;;;;6.70;2.70;;;;;;;27.95;47.51;98148.81;436359;1253;108550;-42
2023/08/26 17:09:19;;;;;;;4.70;3.50;;;;;;;27.65;48.17;98146.81;436352;1248;98407;-41
2023/08/26 17:19:26;;;;;;;5.60;3.60;;;;;;;27.23;48.58;98162.59;436425;1247;111957;-42
2023/08/26 17:29:33;;;;;;;4.40;4.00;;;;;;;26.73;49.35;98174.50;436551;1253;108910;-41
2023/08/26 18:09:59;;;;;;;7.20;5.50;;;;;;;24.92;52.18;98200.63;436477;1252;111092;-44
2023/08/26 18:20:07;;;;;;;9.30;7.70;;;;;;;24.30;53.06;98200.63;436336;1252;108346;-44
2023/08/26 18:30:13;;;;;;;12.00;9.20;;;;;;;24.03;54.91;98198.23;436347;1247;99311;-43
2023/08/26 18:40:21;;;;;;;11.20;9.50;;;;;;;24.04;56.50;98202.27;436402;1252;107819;-43
2023/08/26 18:50:31;;;;;;;22.50;11.70;;;;;;;24.01;58.15;98224.84;436319;1248;98416;-42
2023/08/26 19:00:38;;;;;;;17.60;12.80;;;;;;;23.91;59.60;98237.16;436347;1247;111932;-41
2023/08/26 19:10:47;;;;;;;20.70;12.40;;;;;;;23.72;60.50;98235.98;436298;1253;108441;-42
2023/08/26 19:20:53;;;;;;;21.20;13.20;;;;;;;23.51;61.45;98244.38;436311;1253;99191;-42
2023/08/26 19:31:00;;;;;;;25.20;16.50;;;;;;;23.39;62.38;98252.16;436380;1248;108696;-42
2023/08/26 19:41:07;;;;;;;21.90;15.70;;;;;;;23.21;63.27;98249.79;436276;1252;99281;-43
2023/08/26 19:51:14;;;;;;;18.80;15.60;;;;;;;23.04;64.17;98257.31;436296;1252;111753;-44
2023/08/26 20:11:26;;;;;;;19.50;16.90;;;;;;;22.80;66.18;98221.95;436253;1253;99224;-41
2023/08/26 20:21:34;;;;;;;24.80;17.60;;;;;;;22.66;66.75;98198.98;436356;1253;107835;-41
2023/08/26 20:31:41;;;;;;;27.10;17.20;;;;;;;22.48;67.64;98187.03;436590;1253;99227;-43
2023/08/26 20:41:51;;;;;;;33.70;21.00;;;;;;;22.42;68.59;98174.02;437647;1253;110956;-42
2023/08/26 20:51:58;;;;;;;25.50;16.60;;;;;;;22.40;68.94;98186.67;436869;1261;107216;-43
2023/08/26 21:02:06;;;;;;;22.10;15.50;;;;;;;22.23;69.40;98189.23;437265;1253;98029;-43
2023/08/26 21:12:12;;;;;;;19.40;15.30;;;;;;;22.10;70.05;98188.79;437940;1253;107056;-42
2023/08/26 21:22:19;;;;;;;22.80;14.70;;;;;;;21.97;70.46;98154.10;437981;1254;98811;-42
2023/08/26 21:32:25;;;;;;;16.30;12.90;;;;;;;21.89;71.27;98125.27;437133;1254;111734;-42
2023/08/26 21:42:32;;;;;;;22.30;14.00;;;;;;;21.97;71.55;98100.73;436201;1253;108057;-42
2023/08/26 21:52:39;;;;;;;19.00;13.60;;;;;;;21.96;71.76;98059.52;436566;1251;99205;-43
2023/08/26 22:02:46;;;;;;;22.40;13.30;;;;;;;21.87;71.70;98078.79;436414;1252;108502;-42
2023/08/26 22:23:00;;;;;;;23.10;15.70;;;;;;;21.69;72.71;98069.69;436562;1253;110725;-42
2023/08/26 22:33:06;;;;;;;19.20;14.10;;;;;;;21.86;73.22;98060.70;437326;1261;108017;-44
2023/08/26 22:43:13;;;;;;;16.30;13.90;;;;;;;21.86;73.14;98070.17;436311;1248;99208;-42
2023/08/26 22:53:18;;;;;;;19.90;14.50;;;;;;;21.80;73.46;98048.59;436241;1253;110325;-42
2023/08/26 23:03:25;;;;;;;18.60;15.10;;;;;;;21.79;73.56;97985.17;436239;1253;99212;-42
2023/08/26 23:13:32;;;;;;;17.60;14.80;;;;;;;21.54;73.50;98033.49;437308;1248;110953;-43
2023/08/26 23:23:39;;;;;;;21.80;15.40;;;;;;;21.56;74.16;98075.25;436452;1253;108103;-41
2023/08/26 23:33:46;;;;;;;21.80;17.20;;;;;;;21.49;74.31;98128.11;436390;1261;99390;-43
2023/08/26 23:43:52;;;;;;;21.40;16.30;;;;;;;21.29;75.30;98173.86;436286;1261;108714;-42
2023/08/26 23:53:58;;;;;;;23.00;17.50;;;;;;;21.27;75.65;98138.95;436142;1251;99266;-43
